createdAt,value
2023-01-21T00:01:19.967Z,97490.94
2023-01-21T00:04:23.130Z,97483.38
2023-01-21T00:07:26.164Z,97488.53
2023-01-21T00:10:28.924Z,97490.09
2023-01-21T00:13:31.509Z,97474.66
2023-01-21T00:16:34.105Z,97482.47
2023-01-21T00:19:37.311Z,97494.44
2023-01-21T00:22:40.059Z,97498.00
2023-01-21T00:25:43.071Z,97488.16
2023-01-21T00:28:46.948Z,97493.97
2023-01-21T00:31:50.242Z,97492.44
2023-01-21T00:34:52.854Z,97502.44
2023-01-21T00:37:55.479Z,97494.91
2023-01-21T00:41:06.591Z,97504.28
2023-01-21T00:44:09.447Z,97499.75
2023-01-21T00:47:12.032Z,97494.72
2023-01-21T00:50:15.524Z,97504.28
2023-01-21T00:53:18.785Z,97505.31
2023-01-21T00:56:21.531Z,97510.34
2023-01-21T00:59:24.631Z,97510.63
2023-01-21T01:02:27.378Z,97518.66
2023-01-21T01:05:30.047Z,97510.72
2023-01-21T01:08:33.078Z,97503.38
2023-01-21T01:11:36.610Z,97521.84
2023-01-21T01:14:39.424Z,97523.34
2023-01-21T01:17:42.524Z,97527.81
2023-01-21T01:20:45.256Z,97534.38
2023-01-21T01:23:49.120Z,97537.28
2023-01-21T01:26:52.448Z,97521.75
2023-01-21T01:29:54.993Z,97529.75
2023-01-21T01:32:58.106Z,97532.72
2023-01-21T01:36:06.419Z,97528.38
2023-01-21T01:39:09.048Z,97536.22
2023-01-21T01:42:16.451Z,97536.41
2023-01-21T01:45:21.458Z,97538.13
2023-01-21T01:48:27.799Z,97533.66
2023-01-21T01:51:44.079Z,97538.03
2023-01-21T01:54:50.442Z,97540.78
2023-01-21T01:57:54.457Z,97540.97
2023-01-21T02:00:58.200Z,97538.03
2023-01-21T02:04:03.008Z,97539.78
2023-01-21T02:07:05.880Z,97536.59
2023-01-21T02:10:14.393Z,97539.34
2023-01-21T02:13:17.385Z,97533.66
2023-01-21T02:16:57.924Z,97527.75
2023-01-21T02:20:20.126Z,97533.66
2023-01-21T02:23:29.088Z,97532.97
2023-01-21T02:26:57.910Z,97521.66
2023-01-21T02:30:09.613Z,97524.41
2023-01-21T02:33:30.487Z,97520.75
2023-01-21T02:36:59.247Z,97523.59
2023-01-21T02:40:15.280Z,97512.63
2023-01-21T02:43:25.627Z,97510.63
2023-01-21T02:46:53.313Z,97508.41
2023-01-21T02:50:03.964Z,97512.81
2023-01-21T02:53:07.321Z,97507.13
2023-01-21T02:56:20.842Z,97503.97
2023-01-21T02:59:23.393Z,97500.75
2023-01-21T03:02:34.355Z,97503.16
2023-01-21T03:05:43.148Z,97498.28
2023-01-21T03:08:54.410Z,97483.38
2023-01-21T03:12:09.286Z,97487.41
2023-01-21T03:15:43.649Z,97490.75
2023-01-21T03:18:49.915Z,97486.41
2023-01-21T03:21:54.576Z,97476.94
2023-01-21T03:24:58.300Z,97486.31
2023-01-21T03:28:03.073Z,97490.75
2023-01-21T03:31:26.845Z,97489.47
2023-01-21T03:34:31.425Z,97498.19
2023-01-21T03:37:57.282Z,97489.81
2023-01-21T03:41:08.849Z,97502.69
2023-01-21T03:44:11.418Z,97499.56
2023-01-21T03:47:45.185Z,97495.88
2023-01-21T03:50:54.139Z,97488.25
2023-01-21T03:53:57.929Z,97495.59
2023-01-21T03:57:00.486Z,97498.25
2023-01-21T04:00:04.787Z,97516.38
2023-01-21T04:03:07.153Z,97512.03
2023-01-21T04:06:14.809Z,97493.09
2023-01-21T04:09:17.302Z,97505.31
2023-01-21T04:12:19.795Z,97489.97
2023-01-21T04:15:22.351Z,97509.81
2023-01-21T04:18:24.932Z,97497.13
2023-01-21T04:21:27.582Z,97502.63
2023-01-21T04:24:30.150Z,97503.28
2023-01-21T04:27:32.662Z,97505.13
2023-01-21T04:30:35.353Z,97504.50
2023-01-21T04:33:38.500Z,97514.25
2023-01-21T04:36:41.242Z,97513.56
2023-01-21T04:39:43.854Z,97516.06
2023-01-21T04:42:46.493Z,97519.75
2023-01-21T04:45:50.527Z,97521.28
2023-01-21T04:48:53.105Z,97525.63
2023-01-21T04:51:55.722Z,97523.88
2023-01-21T04:54:58.283Z,97527.28
2023-01-21T04:58:03.737Z,97531.69
2023-01-21T05:01:06.488Z,97528.38
2023-01-21T05:04:09.242Z,97536.66
2023-01-21T05:07:15.180Z,97536.50
2023-01-21T05:10:18.482Z,97540.53
2023-01-21T05:13:21.236Z,97538.78
2023-01-21T05:16:24.358Z,97544.59
2023-01-21T05:19:27.007Z,97546.63
2023-01-21T05:22:29.677Z,97549.91
2023-01-21T05:25:32.373Z,97554.00
2023-01-21T05:28:35.024Z,97554.91
2023-01-21T05:31:37.756Z,97553.25
2023-01-21T05:34:40.407Z,97570.34
2023-01-21T05:37:43.200Z,97571.69
2023-01-21T05:40:45.871Z,97578.47
2023-01-21T05:43:48.551Z,97589.16
2023-01-21T05:46:51.225Z,97601.34
2023-01-21T05:49:53.779Z,97611.72
2023-01-21T05:52:56.464Z,97618.34
2023-01-21T05:55:59.378Z,97630.94
2023-01-21T05:59:01.937Z,97637.75
2023-01-21T06:02:04.506Z,97632.34
2023-01-21T06:05:07.546Z,97640.81
2023-01-21T06:08:11.528Z,97651.38
2023-01-21T06:11:14.059Z,97648.19
2023-01-21T06:14:16.913Z,97654.09
2023-01-21T06:17:19.697Z,97665.16
2023-01-21T06:20:22.824Z,97669.19
2023-01-21T06:23:25.606Z,97662.56
2023-01-21T06:26:28.691Z,97668.16
2023-01-21T06:29:31.501Z,97660.25
2023-01-21T06:32:34.654Z,97668.03
2023-01-21T06:35:38.062Z,97676.41
2023-01-21T06:38:41.191Z,97678.25
2023-01-21T06:41:44.129Z,97691.22
2023-01-21T06:44:47.076Z,97695.47
2023-01-21T06:47:49.901Z,97700.53
2023-01-21T06:50:52.836Z,97696.19
2023-01-21T06:53:55.783Z,97707.44
2023-01-21T06:57:01.407Z,97707.09
2023-01-21T07:00:05.589Z,97720.50
2023-01-21T07:03:10.563Z,97719.03
2023-01-21T07:06:13.396Z,97715.75
2023-01-21T07:09:16.285Z,97731.22
2023-01-21T07:12:18.931Z,97722.44
2023-01-21T07:15:22.003Z,97721.63
2023-01-21T07:18:24.664Z,97724.53
2023-01-21T07:21:27.650Z,97736.91
2023-01-21T07:24:30.473Z,97749.69
2023-01-21T07:27:33.390Z,97748.81
2023-01-21T07:30:36.209Z,97748.28
2023-01-21T07:33:38.769Z,97762.13
2023-01-21T07:36:41.682Z,97759.03
2023-01-21T07:39:44.436Z,97764.19
2023-01-21T07:42:52.182Z,97750.63
2023-01-21T07:45:58.576Z,97731.47
2023-01-21T07:49:02.621Z,97738.91
2023-01-21T07:52:05.456Z,97735.75
2023-01-21T07:55:10.504Z,97735.53
2023-01-21T07:58:15.077Z,97736.53
2023-01-21T08:01:18.165Z,97746.84
2023-01-21T08:04:20.955Z,97756.72
2023-01-21T08:07:23.682Z,97758.78
2023-01-21T08:10:26.842Z,97768.38
2023-01-21T08:13:30.366Z,97766.47
2023-01-21T08:16:33.075Z,97768.97
2023-01-21T08:19:36.258Z,97771.09
2023-01-21T08:22:39.391Z,97779.31
2023-01-21T08:25:42.235Z,97776.09
2023-01-21T08:28:45.177Z,97770.06
2023-01-21T08:31:47.860Z,97769.88
2023-01-21T08:34:51.155Z,97766.13
2023-01-21T08:37:58.173Z,97764.84
2023-01-21T08:41:00.874Z,97760.69
2023-01-21T08:44:03.805Z,97768.97
2023-01-21T08:47:06.769Z,97764.00
2023-01-21T08:50:10.392Z,97774.72
2023-01-21T08:53:13.503Z,97769.13
2023-01-21T08:56:16.495Z,97765.91
2023-01-21T08:59:22.055Z,97777.69
2023-01-21T09:02:24.874Z,97782.09
2023-01-21T09:05:27.871Z,97777.28
2023-01-21T09:08:30.720Z,97782.47
2023-01-21T09:11:34.406Z,97792.09
2023-01-21T09:14:37.442Z,97793.66
2023-01-21T09:17:40.076Z,97800.44
2023-01-21T09:20:43.193Z,97802.06
2023-01-21T09:23:45.884Z,97805.84
2023-01-21T09:26:49.376Z,97802.88
2023-01-21T09:29:52.258Z,97807.09
2023-01-21T09:32:55.344Z,97804.19
2023-01-21T09:36:00.441Z,97798.97
2023-01-21T09:39:03.397Z,97799.28
2023-01-21T09:42:06.348Z,97798.22
2023-01-21T09:45:13.954Z,97810.25
2023-01-21T09:48:28.415Z,97792.16
2023-01-21T09:51:52.721Z,97797.44
2023-01-21T09:54:56.445Z,97794.22
2023-01-21T09:57:59.452Z,97787.28
2023-01-21T10:01:02.142Z,97791.00
2023-01-21T10:04:33.334Z,97797.00
2023-01-21T10:07:40.748Z,97794.03
2023-01-21T10:10:50.233Z,97798.91
2023-01-21T10:14:18.973Z,97795.47
2023-01-21T10:17:35.196Z,97802.84
2023-01-21T10:21:04.988Z,97800.22
2023-01-21T10:24:13.529Z,97802.81
2023-01-21T10:27:19.115Z,97809.38
2023-01-21T10:30:32.898Z,97808.47
2023-01-21T10:33:35.670Z,97802.44
2023-01-21T10:36:44.516Z,97808.28
2023-01-21T10:40:06.254Z,97803.13
2023-01-21T10:43:36.877Z,97802.16
2023-01-21T10:46:49.228Z,97803.06
2023-01-21T10:50:10.519Z,97803.22
2023-01-21T10:53:23.200Z,97796.94
2023-01-21T10:56:26.483Z,97796.63
2023-01-21T10:59:33.280Z,97796.50
2023-01-21T11:02:36.330Z,97791.91
2023-01-21T11:05:39.600Z,97783.13
2023-01-21T11:08:45.881Z,97782.13
2023-01-21T11:11:48.800Z,97791.91
2023-01-21T11:14:57.608Z,97791.84
2023-01-21T11:18:00.618Z,97779.00
2023-01-21T11:21:23.375Z,97784.81
2023-01-21T11:24:26.978Z,97785.41
2023-01-21T11:27:38.681Z,97781.94
2023-01-21T11:30:50.633Z,97788.34
2023-01-21T11:34:05.087Z,97788.38
2023-01-21T11:37:09.124Z,97791.16
2023-01-21T11:40:26.023Z,97791.69
2023-01-21T11:43:36.225Z,97790.00
2023-01-21T11:46:40.542Z,97794.22
2023-01-21T11:49:49.501Z,97809.59
2023-01-21T11:53:08.115Z,97802.31
2023-01-21T11:56:13.916Z,97794.31
2023-01-21T11:59:24.493Z,97787.94
2023-01-21T12:02:32.348Z,97799.03
2023-01-21T12:05:37.866Z,97798.50
2023-01-21T12:08:40.999Z,97796.84
2023-01-21T12:11:47.595Z,97807.38
2023-01-21T12:14:59.291Z,97807.78
2023-01-21T12:18:17.501Z,97806.97
2023-01-21T12:21:20.356Z,97802.09
2023-01-21T12:24:29.254Z,97807.47
2023-01-21T12:27:51.293Z,97808.28
2023-01-21T12:31:29.825Z,97803.06
2023-01-21T12:34:34.974Z,97800.81
2023-01-21T12:38:09.899Z,97809.31
2023-01-21T12:41:19.540Z,97806.38
2023-01-21T12:44:30.977Z,97811.03
2023-01-21T12:47:49.207Z,97818.63
2023-01-21T12:51:12.630Z,97816.03
2023-01-21T12:54:23.590Z,97812.72
2023-01-21T12:58:06.966Z,97814.47
2023-01-21T13:01:14.041Z,97828.38
2023-01-21T13:04:19.674Z,97813.94
2023-01-21T13:07:22.521Z,97827.00
2023-01-21T13:10:36.269Z,97831.69
2023-01-21T13:13:42.899Z,97829.75
2023-01-21T13:16:50.002Z,97839.44
2023-01-21T13:19:53.179Z,97848.66
2023-01-21T13:23:33.230Z,97852.38
2023-01-21T13:26:45.428Z,97854.66
2023-01-21T13:30:06.648Z,97855.78
2023-01-21T13:33:24.937Z,97855.81
2023-01-21T13:36:53.045Z,97851.94
2023-01-21T13:40:27.118Z,97867.13
2023-01-21T13:43:36.118Z,97870.75
2023-01-21T13:47:21.478Z,97871.69
2023-01-21T13:50:39.406Z,97869.16
2023-01-21T13:54:01.353Z,97883.72
2023-01-21T13:57:16.148Z,97876.53
2023-01-21T14:00:34.291Z,97878.78
2023-01-21T14:03:55.428Z,97882.25
2023-01-21T14:07:06.796Z,97893.50
2023-01-21T14:10:20.057Z,97895.28
2023-01-21T14:14:13.527Z,97896.78
2023-01-21T14:17:28.225Z,97890.97
2023-01-21T14:20:36.673Z,97893.00
2023-01-21T14:23:46.680Z,97897.69
2023-01-21T14:27:13.710Z,97904.22
2023-01-21T14:30:32.997Z,97906.38
2023-01-21T14:33:45.236Z,97918.72
2023-01-21T14:36:51.324Z,97919.28
2023-01-21T14:40:12.094Z,97924.53
2023-01-21T14:43:33.324Z,97936.06
2023-01-21T14:46:36.235Z,97947.97
2023-01-21T14:49:40.462Z,97945.56
2023-01-21T14:52:45.525Z,97944.38
2023-01-21T14:56:07.003Z,97948.13
2023-01-21T14:59:36.390Z,97949.09
2023-01-21T15:02:47.880Z,97947.22
2023-01-21T15:05:52.276Z,97954.19
2023-01-21T15:09:00.002Z,97957.03
2023-01-21T15:12:06.238Z,97961.19
2023-01-21T15:15:32.024Z,97956.03
2023-01-21T15:18:51.145Z,97957.44
2023-01-21T15:22:00.031Z,97962.88
2023-01-21T15:25:16.398Z,97961.59
2023-01-21T15:28:25.374Z,97963.84
2023-01-21T15:31:28.060Z,97959.50
2023-01-21T15:34:33.855Z,97963.09
2023-01-21T15:37:38.982Z,97962.34
2023-01-21T15:40:42.109Z,97962.75
2023-01-21T15:43:55.271Z,97966.16
2023-01-21T15:47:05.233Z,97957.94
2023-01-21T15:50:29.762Z,97967.75
2023-01-21T15:53:56.934Z,97966.25
2023-01-21T15:57:13.145Z,97970.44
2023-01-21T16:00:29.880Z,97966.44
2023-01-21T16:03:43.630Z,97980.50
2023-01-21T16:07:06.598Z,97974.66
2023-01-21T16:10:24.460Z,97985.00
2023-01-21T16:13:55.623Z,97990.41
2023-01-21T16:17:23.306Z,97995.31
2023-01-21T16:20:26.353Z,98008.38
2023-01-21T16:23:35.426Z,98011.41
2023-01-21T16:26:38.174Z,98009.47
2023-01-21T16:29:40.898Z,98013.53
2023-01-21T16:32:44.095Z,98025.94
2023-01-21T16:35:46.646Z,98031.44
2023-01-21T16:38:49.473Z,98023.03
2023-01-21T16:42:04.027Z,98025.03
2023-01-21T16:45:18.646Z,98030.03
2023-01-21T16:48:24.533Z,98033.19
2023-01-21T16:51:33.048Z,98028.09
2023-01-21T16:54:37.193Z,98036.69
2023-01-21T16:57:39.998Z,98047.00
2023-01-21T17:00:42.935Z,98057.84
2023-01-21T17:03:47.937Z,98053.69
2023-01-21T17:06:52.171Z,98054.00
2023-01-21T17:10:17.418Z,98051.75
2023-01-21T17:13:20.050Z,98065.34
2023-01-21T17:16:33.021Z,98071.31
2023-01-21T17:19:43.754Z,98074.50
2023-01-21T17:22:47.059Z,98089.66
2023-01-21T17:25:58.474Z,98099.81
2023-01-21T17:29:18.331Z,98092.97
2023-01-21T17:32:27.961Z,98093.56
2023-01-21T17:35:32.323Z,98091.66
2023-01-21T17:38:45.477Z,98087.97
2023-01-21T17:41:49.457Z,98097.81
2023-01-21T17:44:55.257Z,98106.16
2023-01-21T17:48:14.692Z,98108.63
2023-01-21T17:51:24.504Z,98109.78
2023-01-21T17:54:28.241Z,98116.38
2023-01-21T17:57:35.926Z,98113.28
2023-01-21T18:00:43.368Z,98101.97
2023-01-21T18:03:46.401Z,98104.66
2023-01-21T18:06:51.460Z,98105.88
2023-01-21T18:09:55.160Z,98117.28
2023-01-21T18:12:58.612Z,98114.03
2023-01-21T18:16:01.596Z,98116.78
2023-01-21T18:19:04.601Z,98119.44
2023-01-21T18:22:13.068Z,98127.88
2023-01-21T18:25:16.591Z,98136.72
2023-01-21T18:28:21.948Z,98131.22
2023-01-21T18:31:25.289Z,98128.06
2023-01-21T18:34:29.493Z,98135.06
2023-01-21T18:37:32.620Z,98127.31
2023-01-21T18:40:35.722Z,98134.13
2023-01-21T18:43:38.316Z,98140.22
2023-01-21T18:46:44.103Z,98138.56
2023-01-21T18:49:49.595Z,98137.03
2023-01-21T18:52:53.096Z,98144.19
2023-01-21T18:55:55.853Z,98141.28
2023-01-21T18:58:59.842Z,98152.44
2023-01-21T19:02:02.851Z,98155.03
2023-01-21T19:05:06.169Z,98148.72
2023-01-21T19:08:18.105Z,98150.38
2023-01-21T19:11:21.292Z,98149.38
2023-01-21T19:14:24.600Z,98158.13
2023-01-21T19:17:30.937Z,98168.81
2023-01-21T19:20:33.646Z,98177.41
2023-01-21T19:23:37.686Z,98168.59
2023-01-21T19:26:42.780Z,98177.09
2023-01-21T19:29:46.514Z,98174.72
2023-01-21T19:32:50.699Z,98177.84
2023-01-21T19:35:59.940Z,98192.78
2023-01-21T19:39:02.928Z,98190.16
2023-01-21T19:42:08.626Z,98178.22
2023-01-21T19:45:12.619Z,98181.66
2023-01-21T19:48:18.656Z,98179.81
2023-01-21T19:51:21.616Z,98176.63
2023-01-21T19:54:24.605Z,98185.28
2023-01-21T19:57:29.662Z,98194.44
2023-01-21T20:00:36.026Z,98194.28
2023-01-21T20:03:48.086Z,98191.50
2023-01-21T20:06:58.095Z,98195.88
2023-01-21T20:10:01.219Z,98194.81
2023-01-21T20:13:04.133Z,98195.88
2023-01-21T20:16:17.988Z,98201.44
2023-01-21T20:19:23.206Z,98204.56
2023-01-21T20:22:28.619Z,98203.63
2023-01-21T20:25:39.319Z,98211.47
2023-01-21T20:28:47.536Z,98215.59
2023-01-21T20:31:52.311Z,98210.44
2023-01-21T20:34:56.250Z,98226.53
2023-01-21T20:38:00.681Z,98223.44
2023-01-21T20:41:05.012Z,98227.47
2023-01-21T20:44:07.900Z,98232.47
2023-01-21T20:47:11.734Z,98231.59
2023-01-21T20:50:24.219Z,98226.44
2023-01-21T20:53:28.130Z,98226.69
2023-01-21T20:56:32.793Z,98231.09
2023-01-21T20:59:36.657Z,98231.47
2023-01-21T21:02:40.537Z,98235.03
2023-01-21T21:05:45.184Z,98234.75
2023-01-21T21:08:49.364Z,98229.72
2023-01-21T21:11:52.539Z,98231.28
2023-01-21T21:14:55.723Z,98219.56
2023-01-21T21:17:59.491Z,98229.06
2023-01-21T21:21:02.558Z,98222.25
2023-01-21T21:24:06.963Z,98235.34
2023-01-21T21:27:13.075Z,98240.50
2023-01-21T21:30:18.765Z,98245.38
2023-01-21T21:33:23.019Z,98247.06
2023-01-21T21:36:26.419Z,98249.63
2023-01-21T21:39:29.410Z,98244.63
2023-01-21T21:42:51.171Z,98241.28
2023-01-21T21:46:12.882Z,98241.22
2023-01-21T21:49:16.727Z,98244.47
2023-01-21T21:52:20.897Z,98243.84
2023-01-21T21:55:24.588Z,98244.00
2023-01-21T21:58:28.024Z,98242.25
2023-01-21T22:01:31.887Z,98240.69
2023-01-21T22:04:34.998Z,98256.16
2023-01-21T22:07:39.329Z,98261.00
2023-01-21T22:10:42.389Z,98267.84
2023-01-21T22:13:51.593Z,98267.53
2023-01-21T22:16:54.698Z,98255.63
2023-01-21T22:19:58.238Z,98248.19
2023-01-21T22:23:01.585Z,98252.81
2023-01-21T22:26:07.561Z,98247.34
2023-01-21T22:29:10.913Z,98258.91
2023-01-21T22:32:16.546Z,98261.63
2023-01-21T22:35:22.473Z,98257.16
2023-01-21T22:38:25.783Z,98257.97
2023-01-21T22:41:29.097Z,98263.13
2023-01-21T22:44:31.904Z,98270.94
2023-01-21T22:47:36.170Z,98275.25
2023-01-21T22:50:41.080Z,98275.94
2023-01-21T22:53:46.559Z,98281.97
2023-01-21T22:56:52.579Z,98281.78
2023-01-21T22:59:56.040Z,98280.94
2023-01-21T23:02:58.983Z,98278.31
2023-01-21T23:06:06.584Z,98269.66
2023-01-21T23:09:11.490Z,98266.31
2023-01-21T23:12:18.895Z,98260.47
2023-01-21T23:15:22.418Z,98254.31
2023-01-21T23:18:27.042Z,98263.81
2023-01-21T23:21:29.586Z,98262.38
2023-01-21T23:24:32.223Z,98257.91
2023-01-21T23:27:35.204Z,98242.78
2023-01-21T23:30:38.048Z,98240.34
2023-01-21T23:33:41.812Z,98237.19
2023-01-21T23:36:44.651Z,98226.09
2023-01-21T23:39:47.324Z,98229.75
2023-01-21T23:42:50.740Z,98235.44
2023-01-21T23:45:54.416Z,98244.47
2023-01-21T23:48:57.545Z,98260.56
2023-01-21T23:52:00.131Z,98251.91
2023-01-21T23:55:03.377Z,98249.94
2023-01-21T23:58:06.115Z,98251.53
